createdAt,value
2017-03-24T00:00:18.140Z,79.09
2017-03-24T00:01:28.414Z,80.23
2017-03-24T00:02:37.449Z,80.66
2017-03-24T00:03:47.157Z,80.61
2017-03-24T00:04:56.440Z,80.71
2017-03-24T00:06:05.886Z,80.99
2017-03-24T00:07:15.094Z,80.47
2017-03-24T00:08:24.407Z,81.24
2017-03-24T00:09:35.334Z,81.09
2017-03-24T00:10:47.404Z,79.38
2017-03-24T00:11:56.725Z,78.52
2017-03-24T00:13:09.372Z,78.8
2017-03-24T00:14:18.557Z,79.09
2017-03-24T00:15:27.892Z,80.04
2017-03-24T00:16:37.122Z,80
2017-03-24T00:17:46.818Z,80.76
2017-03-24T00:18:56.422Z,80.23
2017-03-24T00:20:06.645Z,80.8
2017-03-24T00:21:16.098Z,81.56
2017-03-24T00:22:25.670Z,81.28
2017-03-24T00:23:34.626Z,81.76
2017-03-24T00:24:46.314Z,81.28
2017-03-24T00:25:55.417Z,81.66
2017-03-24T00:27:05.646Z,80.8
2017-03-24T00:28:16.153Z,80.19
2017-03-24T00:29:25.878Z,80.76
2017-03-24T00:30:35.900Z,81.14
2017-03-24T00:31:45.396Z,80.86
2017-03-24T00:32:55.534Z,80.76
2017-03-24T00:34:04.494Z,80.19
2017-03-24T00:35:14.462Z,79.72
2017-03-24T00:36:23.668Z,78.19
2017-03-24T00:37:33.281Z,77.81
2017-03-24T00:38:42.242Z,78.77
2017-03-24T00:39:52.614Z,80.1
2017-03-24T00:41:01.571Z,80.29
2017-03-24T00:42:12.392Z,79.24
2017-03-24T00:43:21.354Z,79.91
2017-03-24T00:44:31.238Z,79.81
2017-03-24T00:45:40.527Z,79.91
2017-03-24T00:46:51.019Z,80.19
2017-03-24T00:48:01.672Z,80.29
2017-03-24T00:49:11.441Z,79.62
2017-03-24T00:50:21.935Z,80.19
2017-03-24T00:51:31.785Z,79.72
2017-03-24T00:52:42.134Z,80
2017-03-24T00:53:51.358Z,80.05
2017-03-24T00:55:01.119Z,79.72
2017-03-24T00:56:10.080Z,79.2
2017-03-24T00:57:20.126Z,79.96
2017-03-24T00:58:29.081Z,80.24
2017-03-24T00:59:40.419Z,80.91
2017-03-24T01:00:49.375Z,80.91
2017-03-24T01:01:58.345Z,80.91
2017-03-24T01:03:10.070Z,80.72
2017-03-24T01:04:19.034Z,80.91
2017-03-24T01:05:29.119Z,81.58
2017-03-24T01:06:38.197Z,81.29
2017-03-24T01:07:47.246Z,81.67
2017-03-24T01:08:56.201Z,80.91
2017-03-24T01:10:05.729Z,81.38
2017-03-24T01:11:14.940Z,81.48
2017-03-24T01:12:23.984Z,81.29
2017-03-24T01:13:33.428Z,82.24
2017-03-24T01:14:42.427Z,81.58
2017-03-24T01:15:52.018Z,81.48
2017-03-24T01:17:01.397Z,81.58
2017-03-24T01:18:10.928Z,81.2
2017-03-24T01:19:20.215Z,81.2
2017-03-24T01:20:30.075Z,81.2
2017-03-24T01:21:39.918Z,80.05
2017-03-24T01:22:49.212Z,79.01
2017-03-24T01:23:59.080Z,79.86
2017-03-24T01:25:08.043Z,80.82
2017-03-24T01:26:18.171Z,80.91
2017-03-24T01:27:27.735Z,81.01
2017-03-24T01:28:37.164Z,81.1
2017-03-24T01:29:46.859Z,80.82
2017-03-24T01:30:56.516Z,81.2
2017-03-24T01:32:05.759Z,81.2
2017-03-24T01:33:15.478Z,80.72
2017-03-24T01:34:25.269Z,78.72
2017-03-24T01:35:34.832Z,79.86
2017-03-24T01:36:43.788Z,79.96
2017-03-24T01:37:54.051Z,80.72
2017-03-24T01:39:03.080Z,80.05
2017-03-24T01:40:14.534Z,80.82
2017-03-24T01:41:23.491Z,80.15
2017-03-24T01:42:33.406Z,80.63
2017-03-24T01:43:42.368Z,80.15
2017-03-24T01:44:52.767Z,79.86
2017-03-24T01:46:04.233Z,78.72
2017-03-24T01:47:13.868Z,79.3
2017-03-24T01:48:25.915Z,79.83
2017-03-24T01:49:34.877Z,80.05
2017-03-24T01:50:45.439Z,80.34
2017-03-24T01:51:55.508Z,80.63
2017-03-24T01:53:04.473Z,80.4
2017-03-24T01:54:13.981Z,80.49
2017-03-24T01:55:22.941Z,80.3
2017-03-24T01:56:33.218Z,80.05
2017-03-24T01:57:42.850Z,79.73
2017-03-24T01:58:52.395Z,79.83
2017-03-24T02:00:02.162Z,78.97
2017-03-24T02:01:11.413Z,79.35
2017-03-24T02:02:20.393Z,80.02
2017-03-24T02:03:30.429Z,79.25
2017-03-24T02:04:40.456Z,79.83
2017-03-24T02:05:50.471Z,79.63
2017-03-24T02:06:59.986Z,80.21
2017-03-24T02:08:09.677Z,80.02
2017-03-24T02:09:18.895Z,80.3
2017-03-24T02:10:27.851Z,80.77
2017-03-24T02:11:36.813Z,79.92
2017-03-24T02:12:45.776Z,80.3
2017-03-24T02:13:54.737Z,80.87
2017-03-24T02:15:03.954Z,80.68
2017-03-24T02:16:12.908Z,79.83
2017-03-24T02:17:21.873Z,79.73
2017-03-24T02:18:30.829Z,80.02
2017-03-24T02:19:39.793Z,80.4
2017-03-24T02:20:49.090Z,80.96
2017-03-24T02:21:58.368Z,81.16
2017-03-24T02:23:07.327Z,81.35
2017-03-24T02:24:16.293Z,81.82
2017-03-24T02:25:25.256Z,81.35
2017-03-24T02:26:34.469Z,80.87
2017-03-24T02:27:43.427Z,80.77
2017-03-24T02:28:52.710Z,80.58
2017-03-24T02:30:01.766Z,80.68
2017-03-24T02:31:10.808Z,80.21
2017-03-24T02:32:20.012Z,80.02
2017-03-24T02:33:28.967Z,80.68
2017-03-24T02:34:37.928Z,80.87
2017-03-24T02:35:46.883Z,81.16
2017-03-24T02:36:55.970Z,80.77
2017-03-24T02:38:05.233Z,80.68
2017-03-24T02:39:14.277Z,81.06
2017-03-24T02:40:23.246Z,81.06
2017-03-24T02:41:32.201Z,81.54
2017-03-24T02:42:41.158Z,81.63
2017-03-24T02:43:50.372Z,81.25
2017-03-24T02:44:59.332Z,81.16
2017-03-24T02:46:08.291Z,79.06
2017-03-24T02:47:17.243Z,80.02
2017-03-24T02:48:26.204Z,80.21
2017-03-24T02:49:35.415Z,79.83
2017-03-24T02:50:44.369Z,80.49
2017-03-24T02:51:53.408Z,80.49
2017-03-24T02:53:02.366Z,80.77
2017-03-24T02:54:11.331Z,80.96
2017-03-24T02:55:20.544Z,80.96
2017-03-24T02:56:29.499Z,80.68
2017-03-24T02:57:38.472Z,80.96
2017-03-24T02:58:47.433Z,80.58
2017-03-24T02:59:56.393Z,80.77
2017-03-24T03:01:05.926Z,80.77
2017-03-24T03:02:14.887Z,80.68
2017-03-24T03:03:23.844Z,81.21
2017-03-24T03:04:32.793Z,78.83
2017-03-24T03:05:41.796Z,79.12
2017-03-24T03:06:50.997Z,79.5
2017-03-24T03:07:59.954Z,79.97
2017-03-24T03:09:09.006Z,80.55
2017-03-24T03:10:18.290Z,80.16
2017-03-24T03:11:27.244Z,79.69
2017-03-24T03:12:36.445Z,79.69
2017-03-24T03:13:45.500Z,80.07
2017-03-24T03:14:54.782Z,80.26
2017-03-24T03:16:03.740Z,80.45
2017-03-24T03:17:12.694Z,80.45
2017-03-24T03:18:22.221Z,80.45
2017-03-24T03:19:31.190Z,80.83
2017-03-24T03:20:40.149Z,80.83
2017-03-24T03:21:49.108Z,80.83
2017-03-24T03:22:58.194Z,81.3
2017-03-24T03:24:07.398Z,80.83
2017-03-24T03:25:16.357Z,80.74
2017-03-24T03:26:25.309Z,80.74
2017-03-24T03:27:34.271Z,80.74
2017-03-24T03:28:43.240Z,80.16
2017-03-24T03:29:52.453Z,80.55
2017-03-24T03:31:01.561Z,80.45
2017-03-24T03:32:10.521Z,80.55
2017-03-24T03:33:19.522Z,80.74
2017-03-24T03:34:28.483Z,80.64
2017-03-24T03:35:37.678Z,80.45
2017-03-24T03:36:46.633Z,80.45
2017-03-24T03:37:55.911Z,80.26
2017-03-24T03:39:04.963Z,80.45
2017-03-24T03:40:13.924Z,80.64
2017-03-24T03:41:23.127Z,80.35
2017-03-24T03:42:32.079Z,80.55
2017-03-24T03:43:41.125Z,80.74
2017-03-24T03:44:50.086Z,80.45
2017-03-24T03:45:59.041Z,80.55
2017-03-24T03:47:08.250Z,80.07
2017-03-24T03:48:17.210Z,80.07
2017-03-24T03:49:26.169Z,80.07
2017-03-24T03:50:35.126Z,80.74
2017-03-24T03:51:44.079Z,80.74
2017-03-24T03:52:53.289Z,80.55
2017-03-24T03:54:02.257Z,80.64
2017-03-24T03:55:11.217Z,81.12
2017-03-24T03:56:20.171Z,80.93
2017-03-24T03:57:29.123Z,80.74
2017-03-24T03:58:38.334Z,80.83
2017-03-24T03:59:47.295Z,80.64
2017-03-24T04:00:56.252Z,80.74
2017-03-24T04:02:05.204Z,80.55
2017-03-24T04:03:14.162Z,80.74
2017-03-24T04:04:23.374Z,80.07
2017-03-24T04:05:32.664Z,79.79
2017-03-24T04:06:41.616Z,80.07
2017-03-24T04:07:50.568Z,79.79
2017-03-24T04:08:59.850Z,80.74
2017-03-24T04:10:09.062Z,80.16
2017-03-24T04:11:18.010Z,80.16
2017-03-24T04:12:26.957Z,80.64
2017-03-24T04:13:35.921Z,79.88
2017-03-24T04:14:44.878Z,79.97
2017-03-24T04:15:54.091Z,79.88
2017-03-24T04:17:03.053Z,79.69
2017-03-24T04:18:12.011Z,79.5
2017-03-24T04:19:20.977Z,79.6
2017-03-24T04:20:29.939Z,80.16
2017-03-24T04:21:39.140Z,79.79
2017-03-24T04:22:48.181Z,79.79
2017-03-24T04:23:57.148Z,79.41
2017-03-24T04:25:06.106Z,79.12
2017-03-24T04:26:15.058Z,79.69
2017-03-24T04:27:24.348Z,79.5
2017-03-24T04:28:33.307Z,79.5
2017-03-24T04:29:42.267Z,79.79
2017-03-24T04:30:51.221Z,79.79
2017-03-24T04:32:00.175Z,79.88
2017-03-24T04:33:09.428Z,79.69
2017-03-24T04:34:18.411Z,79.5
2017-03-24T04:35:27.369Z,79.69
2017-03-24T04:36:36.325Z,79.79
2017-03-24T04:37:45.277Z,79.41
2017-03-24T04:38:54.537Z,79.22
2017-03-24T04:40:03.499Z,79.69
2017-03-24T04:41:12.577Z,79.5
2017-03-24T04:42:21.537Z,79.79
2017-03-24T04:43:30.497Z,79.88
2017-03-24T04:44:39.800Z,80.07
2017-03-24T04:45:48.751Z,80.07
2017-03-24T04:46:57.701Z,79.5
2017-03-24T04:48:06.653Z,79.5
2017-03-24T04:49:15.619Z,79.97
2017-03-24T04:50:24.822Z,79.79
2017-03-24T04:51:33.780Z,79.97
2017-03-24T04:52:42.742Z,79.69
2017-03-24T04:53:51.698Z,79.69
2017-03-24T04:55:00.653Z,79.03
2017-03-24T04:56:09.865Z,79.22
2017-03-24T04:57:18.817Z,79.12
2017-03-24T04:58:27.767Z,79.12
2017-03-24T04:59:36.718Z,79.6
2017-03-24T05:00:45.758Z,79.12
2017-03-24T05:01:55.012Z,79.03
2017-03-24T05:03:04.059Z,78.83
2017-03-24T05:04:13.017Z,78.83
2017-03-24T05:05:21.980Z,78.64
2017-03-24T05:06:30.930Z,78.51
2017-03-24T05:07:40.520Z,78.7
2017-03-24T05:08:49.484Z,78.8
2017-03-24T05:09:58.451Z,79.08
2017-03-24T05:11:07.405Z,78.89
2017-03-24T05:12:16.359Z,78.61
2017-03-24T05:13:25.612Z,79.17
2017-03-24T05:14:34.581Z,79.08
2017-03-24T05:15:43.537Z,78.89
2017-03-24T05:16:52.494Z,79.94
2017-03-24T05:18:01.452Z,79.46
2017-03-24T05:19:10.716Z,79.94
2017-03-24T05:20:19.683Z,79.46
2017-03-24T05:21:28.640Z,78.51
2017-03-24T05:22:37.984Z,78.51
2017-03-24T05:23:46.942Z,78.7
2017-03-24T05:24:56.535Z,78.89
2017-03-24T05:26:05.491Z,79.08
2017-03-24T05:27:14.443Z,79.08
2017-03-24T05:28:23.722Z,79.27
2017-03-24T05:29:32.767Z,79.08
2017-03-24T05:30:42.019Z,78.99
2017-03-24T05:31:50.969Z,79.17
2017-03-24T05:32:59.926Z,79.27
2017-03-24T05:34:08.888Z,79.36
2017-03-24T05:35:17.852Z,79.55
2017-03-24T05:36:27.109Z,79.94
2017-03-24T05:37:36.061Z,79.65
2017-03-24T05:38:45.030Z,80.13
2017-03-24T05:39:53.990Z,80.03
2017-03-24T05:41:03.038Z,80.03
2017-03-24T05:42:12.242Z,80.41
2017-03-24T05:43:21.199Z,80.13
2017-03-24T05:44:30.162Z,80.6
2017-03-24T05:45:39.113Z,80.32
2017-03-24T05:46:48.069Z,80.22
2017-03-24T05:47:57.373Z,80.51
2017-03-24T05:49:07.001Z,79.74
2017-03-24T05:50:15.959Z,79.84
2017-03-24T05:51:24.913Z,79.74
2017-03-24T05:52:33.869Z,78.23
2017-03-24T05:53:43.130Z,77.98
2017-03-24T05:54:52.088Z,77.94
2017-03-24T05:56:01.047Z,77.75
2017-03-24T05:57:10.009Z,78.32
2017-03-24T05:58:18.974Z,78.61
2017-03-24T05:59:28.243Z,79.27
2017-03-24T06:00:37.209Z,79.55
2017-03-24T06:01:46.157Z,79.94
2017-03-24T06:02:55.115Z,79.84
2017-03-24T06:04:04.088Z,79.5
2017-03-24T06:05:13.362Z,79.5
2017-03-24T06:06:22.319Z,79.79
2017-03-24T06:07:31.311Z,79.79
2017-03-24T06:08:40.275Z,79.5
2017-03-24T06:09:49.234Z,78.93
2017-03-24T06:10:58.493Z,78.64
2017-03-24T06:12:07.451Z,77.51
2017-03-24T06:13:16.410Z,76.84
2017-03-24T06:14:25.372Z,77.18
2017-03-24T06:15:34.326Z,77.66
2017-03-24T06:16:43.578Z,76.9
2017-03-24T06:17:52.547Z,76.23
2017-03-24T06:19:01.563Z,76.61
2017-03-24T06:20:10.691Z,76.61
2017-03-24T06:21:19.645Z,77.66
2017-03-24T06:22:28.898Z,76.61
2017-03-24T06:23:37.859Z,75.28
2017-03-24T06:24:46.956Z,76.23
2017-03-24T06:25:55.919Z,76.8
2017-03-24T06:27:05.295Z,76.9
2017-03-24T06:28:15.138Z,76.71
2017-03-24T06:29:30.625Z,76.71
2017-03-24T06:30:39.635Z,75.85
2017-03-24T06:31:48.827Z,75.57
2017-03-24T06:32:57.785Z,75.28
2017-03-24T06:34:07.188Z,76.23
2017-03-24T06:35:16.339Z,76.23
2017-03-24T06:36:25.334Z,76.99
2017-03-24T06:37:34.473Z,76.61
2017-03-24T06:38:43.505Z,76.65
2017-03-24T06:39:52.763Z,75.67
2017-03-24T06:41:01.728Z,75.57
2017-03-24T06:42:10.731Z,75.6
2017-03-24T06:43:19.789Z,75.76
2017-03-24T06:44:28.792Z,75.85
2017-03-24T06:45:38.122Z,76.23
2017-03-24T06:46:47.173Z,76.75
2017-03-24T06:47:56.264Z,76.18
2017-03-24T06:49:05.435Z,76.18
2017-03-24T06:50:14.553Z,76.56
2017-03-24T06:51:23.762Z,75.89
2017-03-24T06:52:32.890Z,75.7
2017-03-24T06:53:41.978Z,76.08
2017-03-24T06:54:50.934Z,76.27
2017-03-24T06:56:00.055Z,75.32
2017-03-24T06:57:09.329Z,74.37
2017-03-24T06:58:18.370Z,75.23
2017-03-24T06:59:27.339Z,75.32
2017-03-24T07:00:36.466Z,75.32
2017-03-24T07:01:45.656Z,75.32
2017-03-24T07:02:55.473Z,75.7
2017-03-24T07:04:04.441Z,74.18
2017-03-24T07:05:13.519Z,74.18
2017-03-24T07:06:22.598Z,73.99
2017-03-24T07:07:31.702Z,74.47
2017-03-24T07:08:40.964Z,74.85
2017-03-24T07:09:49.937Z,75.45
2017-03-24T07:10:58.924Z,74.88
2017-03-24T07:12:07.958Z,74.22
2017-03-24T07:13:16.914Z,74.22
2017-03-24T07:14:26.276Z,74.6
2017-03-24T07:15:35.321Z,74.69
2017-03-24T07:16:44.341Z,74.31
2017-03-24T07:17:53.395Z,73.93
2017-03-24T07:19:02.363Z,73.08
2017-03-24T07:20:11.628Z,72.13
2017-03-24T07:21:20.585Z,70.79
2017-03-24T07:22:29.770Z,70.32
2017-03-24T07:23:38.727Z,70.89
2017-03-24T07:24:47.757Z,72.13
2017-03-24T07:25:57.055Z,72.41
2017-03-24T07:27:06.084Z,72.41
2017-03-24T07:28:15.048Z,72.64
2017-03-24T07:29:24.009Z,72.16
2017-03-24T07:30:33.064Z,71.02
2017-03-24T07:31:42.969Z,70.36
2017-03-24T07:32:51.984Z,69.88
2017-03-24T07:34:01.009Z,69.12
2017-03-24T07:35:10.059Z,68.74
2017-03-24T07:36:19.188Z,69.12
2017-03-24T07:37:28.605Z,69.02
2017-03-24T07:38:37.566Z,69.41
2017-03-24T07:39:46.528Z,68.27
2017-03-24T07:40:55.605Z,68.17
2017-03-24T07:42:04.565Z,68.55
2017-03-24T07:43:13.780Z,68.93
2017-03-24T07:44:22.885Z,68.84
2017-03-24T07:45:32.045Z,68.59
2017-03-24T07:46:41.108Z,66.49
2017-03-24T07:47:50.096Z,65.45
2017-03-24T07:48:59.345Z,65.22
2017-03-24T07:50:08.541Z,65.35
2017-03-24T07:51:17.550Z,65.32
2017-03-24T07:52:26.655Z,65.92
2017-03-24T07:53:35.617Z,65.06
2017-03-24T07:54:44.878Z,65.54
2017-03-24T07:55:53.838Z,66.02
2017-03-24T07:57:02.788Z,66.02
2017-03-24T07:58:11.750Z,66.02
2017-03-24T07:59:20.702Z,64.69
2017-03-24T08:00:29.999Z,64.5
2017-03-24T08:01:39.275Z,64.31
2017-03-24T08:02:48.231Z,62.69
2017-03-24T08:03:57.281Z,62.69
2017-03-24T08:05:06.642Z,63.54
2017-03-24T08:06:15.926Z,63.64
2017-03-24T08:07:25.163Z,61.16
2017-03-24T08:08:34.131Z,61.16
2017-03-24T08:09:43.080Z,60.78
2017-03-24T08:10:52.039Z,60.97
2017-03-24T08:12:01.242Z,60.41
2017-03-24T08:13:10.195Z,60.82
2017-03-24T08:14:19.149Z,59.1
2017-03-24T08:15:28.097Z,59.64
2017-03-24T08:16:37.059Z,59.64
2017-03-24T08:17:46.403Z,59.1
2017-03-24T08:18:55.350Z,59.36
2017-03-24T08:20:04.347Z,59.77
2017-03-24T08:21:13.300Z,59.48
2017-03-24T08:22:22.341Z,59.2
2017-03-24T08:23:31.550Z,59.48
2017-03-24T08:24:40.511Z,59.67
2017-03-24T08:25:49.560Z,59.01
2017-03-24T08:26:58.514Z,58.81
2017-03-24T08:28:07.478Z,58.72
2017-03-24T08:29:16.681Z,57.1
2017-03-24T08:30:25.725Z,55.87
2017-03-24T08:31:34.768Z,56.15
2017-03-24T08:32:43.731Z,56.24
2017-03-24T08:33:52.682Z,55.87
2017-03-24T08:35:01.935Z,55.68
2017-03-24T08:36:10.891Z,55.49
2017-03-24T08:37:19.852Z,56.24
2017-03-24T08:38:28.806Z,55.77
2017-03-24T08:39:37.755Z,56.37
2017-03-24T08:40:47.009Z,55.8
2017-03-24T08:41:56.050Z,54.94
2017-03-24T08:43:06.312Z,53.8
2017-03-24T08:44:15.270Z,53.42
2017-03-24T08:45:24.225Z,53.04
2017-03-24T08:46:33.520Z,52.75
2017-03-24T08:47:42.597Z,52.09
2017-03-24T08:48:51.548Z,51.99
2017-03-24T08:50:00.592Z,52.09
2017-03-24T08:51:09.649Z,50.66
2017-03-24T08:52:18.995Z,49.8
2017-03-24T08:53:27.951Z,49.8
2017-03-24T08:54:36.988Z,49.42
2017-03-24T08:55:46.048Z,49.32
2017-03-24T08:56:55.152Z,49.35
2017-03-24T08:58:04.465Z,49.42
2017-03-24T08:59:13.495Z,49.13
2017-03-24T09:00:22.503Z,48.58
2017-03-24T09:01:31.556Z,48.18
2017-03-24T09:02:40.658Z,48.3
2017-03-24T09:03:49.934Z,47.82
2017-03-24T09:04:58.888Z,48.39
2017-03-24T09:06:07.938Z,48.97
2017-03-24T09:07:16.974Z,49.26
2017-03-24T09:08:26.065Z,49.06
2017-03-24T09:09:35.332Z,48.39
2017-03-24T09:10:44.362Z,48.21
2017-03-24T09:11:53.378Z,48.39
2017-03-24T09:13:02.372Z,48.11
2017-03-24T09:14:11.949Z,48.49
2017-03-24T09:15:22.071Z,48.68
2017-03-24T09:16:31.300Z,49.26
2017-03-24T09:17:40.336Z,48.87
2017-03-24T09:18:49.426Z,48.97
2017-03-24T09:19:58.375Z,48.68
2017-03-24T09:21:07.628Z,48.8
2017-03-24T09:22:16.584Z,48.58
2017-03-24T09:23:25.554Z,48.8
2017-03-24T09:24:34.508Z,48.32
2017-03-24T09:25:43.504Z,47.85
2017-03-24T09:26:52.787Z,48.23
2017-03-24T09:28:01.851Z,47.66
2017-03-24T09:29:10.817Z,47.56
2017-03-24T09:30:19.771Z,47.18
2017-03-24T09:31:28.746Z,47.56
2017-03-24T09:32:38.156Z,47.56
2017-03-24T09:33:47.111Z,47.18
2017-03-24T09:34:56.100Z,47.47
2017-03-24T09:36:05.162Z,47.66
2017-03-24T09:37:14.133Z,47.28
2017-03-24T09:38:23.422Z,47.28
2017-03-24T09:39:32.624Z,47.11
2017-03-24T09:40:41.679Z,47.49
2017-03-24T09:41:50.803Z,46.73
2017-03-24T09:42:59.922Z,46.54
2017-03-24T09:44:10.306Z,46.34
2017-03-24T09:45:21.258Z,46.15
2017-03-24T09:46:30.218Z,46.15
2017-03-24T09:47:39.278Z,46.15
2017-03-24T09:48:48.226Z,45.87
2017-03-24T09:49:57.450Z,45.2
2017-03-24T09:51:06.441Z,44.82
2017-03-24T09:52:15.415Z,44.15
2017-03-24T09:53:25.393Z,44.34
2017-03-24T09:54:36.387Z,43.68
2017-03-24T09:55:45.691Z,43.29
2017-03-24T09:56:55.210Z,43.49
2017-03-24T09:58:04.684Z,43.29
2017-03-24T09:59:14.964Z,43.39
2017-03-24T10:00:28.788Z,43.39
2017-03-24T10:01:38.685Z,42.91
2017-03-24T10:02:47.790Z,42.24
2017-03-24T10:03:56.994Z,42.24
2017-03-24T10:05:06.005Z,41.96
2017-03-24T10:06:14.983Z,41.96
2017-03-24T10:07:24.237Z,42.24
2017-03-24T10:08:33.197Z,43.1
2017-03-24T10:09:42.618Z,42.53
2017-03-24T10:10:51.650Z,42.53
2017-03-24T10:12:00.601Z,42.05
2017-03-24T10:13:09.860Z,41
2017-03-24T10:14:18.821Z,41.03
2017-03-24T10:15:27.815Z,41.2
2017-03-24T10:16:36.779Z,42.08
2017-03-24T10:17:45.738Z,41.6
2017-03-24T10:18:54.951Z,41.31
2017-03-24T10:20:03.912Z,40.45
2017-03-24T10:21:12.864Z,40.07
2017-03-24T10:22:21.821Z,40.17
2017-03-24T10:23:30.777Z,40.64
2017-03-24T10:24:40.040Z,40.26
2017-03-24T10:25:49.056Z,41.41
2017-03-24T10:26:58.009Z,40.74
2017-03-24T10:28:07.031Z,41.12
2017-03-24T10:29:16.056Z,40.26
2017-03-24T10:30:25.463Z,39.4
2017-03-24T10:31:34.511Z,38.64
2017-03-24T10:32:43.503Z,37.9
2017-03-24T10:33:52.458Z,37.97
2017-03-24T10:35:01.416Z,37.59
2017-03-24T10:36:10.678Z,37.49
2017-03-24T10:37:19.636Z,36.94
2017-03-24T10:38:28.598Z,36.56
2017-03-24T10:39:37.553Z,36.56
2017-03-24T10:40:46.501Z,36.66
2017-03-24T10:41:55.757Z,36.27
2017-03-24T10:43:04.799Z,35.89
2017-03-24T10:44:13.754Z,35.89
2017-03-24T10:45:22.708Z,35.89
2017-03-24T10:46:31.667Z,35.51
2017-03-24T10:47:40.881Z,35.03
2017-03-24T10:48:49.841Z,34.65
2017-03-24T10:49:58.795Z,34.94
2017-03-24T10:51:07.748Z,35.03
2017-03-24T10:52:16.826Z,34.94
2017-03-24T10:53:26.251Z,34.84
2017-03-24T10:54:35.542Z,35.13
2017-03-24T10:55:44.515Z,35.13
2017-03-24T10:56:53.466Z,36.66
2017-03-24T10:58:02.427Z,38.47
2017-03-24T10:59:11.634Z,37.63
2017-03-24T11:00:20.590Z,37.92
2017-03-24T11:01:29.584Z,36.77
2017-03-24T11:02:38.542Z,36.29
2017-03-24T11:03:47.496Z,36.39
2017-03-24T11:04:56.707Z,36.39
2017-03-24T11:06:05.667Z,34.95
2017-03-24T11:07:14.623Z,34.28
2017-03-24T11:08:23.579Z,34.67
2017-03-24T11:09:32.569Z,34.38
2017-03-24T11:10:41.778Z,34.86
2017-03-24T11:11:50.824Z,34.38
2017-03-24T11:12:59.784Z,34.48
2017-03-24T11:14:08.742Z,35.91
2017-03-24T11:15:17.700Z,35.91
2017-03-24T11:16:26.906Z,35.82
2017-03-24T11:17:35.865Z,35.35
2017-03-24T11:18:44.820Z,35.06
2017-03-24T11:19:53.770Z,33.83
2017-03-24T11:21:02.727Z,33.35
2017-03-24T11:22:11.984Z,33.35
2017-03-24T11:23:20.938Z,32.97
2017-03-24T11:24:29.899Z,32.58
2017-03-24T11:25:38.853Z,32.68
2017-03-24T11:26:47.812Z,32.68
2017-03-24T11:27:57.011Z,32.2
2017-03-24T11:29:05.964Z,31.24
2017-03-24T11:30:14.923Z,30.58
2017-03-24T11:31:23.877Z,30.67
2017-03-24T11:32:32.832Z,31.34
2017-03-24T11:33:42.037Z,31.34
2017-03-24T11:34:50.993Z,31.34
2017-03-24T11:35:59.943Z,30.67
2017-03-24T11:37:08.901Z,30.67
2017-03-24T11:38:17.885Z,31.15
2017-03-24T11:39:27.101Z,31.53
2017-03-24T11:40:36.055Z,31.43
2017-03-24T11:41:45.012Z,31.63
2017-03-24T11:42:53.973Z,31.63
2017-03-24T11:44:03.247Z,31.53
2017-03-24T11:45:12.502Z,31.43
2017-03-24T11:46:21.456Z,31.53
2017-03-24T11:47:30.499Z,31.24
2017-03-24T11:48:39.453Z,31.43
2017-03-24T11:49:48.401Z,31.34
2017-03-24T11:50:57.657Z,31.43
2017-03-24T11:52:06.612Z,30.67
2017-03-24T11:53:15.570Z,30.67
2017-03-24T11:54:24.524Z,30.77
2017-03-24T11:55:33.495Z,30.58
2017-03-24T11:56:42.702Z,30.38
2017-03-24T11:57:51.657Z,30.38
2017-03-24T11:59:00.618Z,29.72
2017-03-24T12:00:09.583Z,29.91
2017-03-24T12:01:18.545Z,30.48
2017-03-24T12:02:27.806Z,30
2017-03-24T12:03:36.763Z,30.58
2017-03-24T12:04:45.717Z,29.81
2017-03-24T12:05:54.678Z,30.19
2017-03-24T12:07:03.661Z,30
2017-03-24T12:08:13.089Z,30
2017-03-24T12:09:22.244Z,30.1
2017-03-24T12:10:31.200Z,29.81
2017-03-24T12:11:40.156Z,29.72
2017-03-24T12:12:49.118Z,29.14
2017-03-24T12:13:58.377Z,29.62
2017-03-24T12:15:07.336Z,29.81
2017-03-24T12:16:16.296Z,29.81
2017-03-24T12:17:25.259Z,30.1
2017-03-24T12:18:34.213Z,30
2017-03-24T12:19:43.560Z,30.48
2017-03-24T12:20:52.514Z,29.91
2017-03-24T12:22:01.508Z,30.19
2017-03-24T12:23:10.659Z,30
2017-03-24T12:24:19.651Z,30.29
2017-03-24T12:25:29.142Z,30.21
2017-03-24T12:26:38.185Z,29.92
2017-03-24T12:27:47.220Z,30.21
2017-03-24T12:28:56.181Z,29.91
2017-03-24T12:30:05.137Z,30.1
2017-03-24T12:31:14.957Z,30.21
2017-03-24T12:32:23.918Z,29.83
2017-03-24T12:33:32.876Z,29.83
2017-03-24T12:34:41.835Z,29.73
2017-03-24T12:35:50.791Z,29.92
2017-03-24T12:37:00.053Z,29.73
2017-03-24T12:38:09.012Z,29.63
2017-03-24T12:39:17.970Z,29.33
2017-03-24T12:40:27.016Z,29.54
2017-03-24T12:41:35.973Z,29.14
2017-03-24T12:42:45.186Z,28.66
2017-03-24T12:43:54.151Z,28.09
2017-03-24T12:45:03.109Z,28.38
2017-03-24T12:46:12.067Z,28.47
2017-03-24T12:47:21.033Z,28.76
2017-03-24T12:48:30.375Z,28.97
2017-03-24T12:49:39.340Z,28.77
2017-03-24T12:50:48.297Z,29.25
2017-03-24T12:51:57.268Z,29.44
2017-03-24T12:53:06.226Z,29.63
2017-03-24T12:54:15.436Z,28.97
2017-03-24T12:55:24.488Z,28.87
2017-03-24T12:56:33.462Z,28.58
2017-03-24T12:57:42.743Z,28.97
2017-03-24T12:58:51.697Z,28.87
2017-03-24T13:00:01.052Z,28.77
2017-03-24T13:01:10.324Z,28.68
2017-03-24T13:02:19.319Z,28.68
2017-03-24T13:03:28.280Z,29.35
2017-03-24T13:04:37.235Z,29.44
2017-03-24T13:05:46.501Z,29.16
2017-03-24T13:06:55.466Z,28.77
2017-03-24T13:08:04.518Z,28.97
2017-03-24T13:09:13.482Z,28.97
2017-03-24T13:10:22.530Z,28.87
2017-03-24T13:11:32.314Z,28.97
2017-03-24T13:12:41.413Z,28.87
2017-03-24T13:13:50.491Z,28.97
2017-03-24T13:14:59.443Z,28.49
2017-03-24T13:16:08.401Z,28.68
2017-03-24T13:17:17.691Z,28.22
2017-03-24T13:18:26.893Z,28.3
2017-03-24T13:19:35.904Z,28.58
2017-03-24T13:20:45.013Z,28.11
2017-03-24T13:21:54.055Z,28.58
2017-03-24T13:23:03.317Z,28.79
2017-03-24T13:24:12.280Z,28.79
2017-03-24T13:25:21.334Z,28.69
2017-03-24T13:26:30.383Z,28.79
2017-03-24T13:27:39.350Z,28.98
2017-03-24T13:28:48.592Z,28.98
2017-03-24T13:29:57.554Z,28.69
2017-03-24T13:31:06.929Z,28.69
2017-03-24T13:32:15.900Z,28.79
2017-03-24T13:33:24.854Z,28.69
2017-03-24T13:34:34.116Z,28.69
2017-03-24T13:35:43.078Z,28.69
2017-03-24T13:36:52.034Z,28.69
2017-03-24T13:38:00.997Z,28.79
2017-03-24T13:39:09.955Z,28.98
2017-03-24T13:40:19.227Z,28.79
2017-03-24T13:41:28.188Z,29.27
2017-03-24T13:42:37.163Z,29.36
2017-03-24T13:43:46.132Z,28.98
2017-03-24T13:44:55.096Z,28.79
2017-03-24T13:46:04.356Z,28.59
2017-03-24T13:47:13.324Z,28.69
2017-03-24T13:48:22.374Z,28.59
2017-03-24T13:49:31.333Z,28.69
2017-03-24T13:50:40.298Z,28.69
2017-03-24T13:51:49.565Z,28.69
2017-03-24T13:52:58.524Z,28.69
2017-03-24T13:54:07.483Z,28.88
2017-03-24T13:55:16.443Z,28.69
2017-03-24T13:56:25.402Z,28.69
2017-03-24T13:57:34.945Z,28.98
2017-03-24T13:58:43.911Z,28.98
2017-03-24T13:59:52.874Z,28.98
2017-03-24T14:01:01.841Z,29.08
2017-03-24T14:02:10.809Z,28.69
2017-03-24T14:03:20.096Z,28.79
2017-03-24T14:04:29.068Z,29.08
2017-03-24T14:05:38.025Z,29.08
2017-03-24T14:06:46.986Z,28.88
2017-03-24T14:07:55.949Z,28.88
2017-03-24T14:09:05.212Z,28.88
2017-03-24T14:10:14.539Z,29.08
2017-03-24T14:11:23.608Z,29.65
2017-03-24T14:12:32.759Z,29.94
2017-03-24T14:13:41.969Z,30.22
2017-03-24T14:14:51.611Z,29.55
2017-03-24T14:16:00.752Z,29.55
2017-03-24T14:17:09.975Z,29.55
2017-03-24T14:18:19.089Z,29.36
2017-03-24T14:19:28.236Z,29.17
2017-03-24T14:20:37.661Z,29.46
2017-03-24T14:21:46.645Z,29.65
2017-03-24T14:22:55.750Z,29.36
2017-03-24T14:24:04.778Z,29.27
2017-03-24T14:25:13.851Z,28.98
2017-03-24T14:26:23.235Z,28.79
2017-03-24T14:27:32.457Z,29.08
2017-03-24T14:28:41.495Z,29.36
2017-03-24T14:29:50.478Z,29.46
2017-03-24T14:30:59.636Z,29.27
2017-03-24T14:32:08.894Z,29.65
2017-03-24T14:33:17.977Z,29.55
2017-03-24T14:34:27.107Z,29.55
2017-03-24T14:35:36.267Z,29.36
2017-03-24T14:36:45.379Z,29.27
2017-03-24T14:37:54.697Z,29.08
2017-03-24T14:39:03.658Z,28.79
2017-03-24T14:40:12.882Z,28.88
2017-03-24T14:41:22.660Z,28.98
2017-03-24T14:42:31.939Z,29.08
2017-03-24T14:43:41.343Z,28.79
2017-03-24T14:44:50.461Z,28.79
2017-03-24T14:45:59.534Z,28.99
2017-03-24T14:47:08.586Z,28.99
2017-03-24T14:48:17.543Z,28.98
2017-03-24T14:49:26.910Z,28.88
2017-03-24T14:50:35.964Z,28.79
2017-03-24T14:51:44.998Z,28.8
2017-03-24T14:52:53.971Z,29.38
2017-03-24T14:54:03.334Z,29.28